createdAt,value
2023-02-03T00:00:33.877Z,4.70
2023-02-03T00:03:02.135Z,4.61
2023-02-03T00:11:16.343Z,4.87
2023-02-03T00:13:44.178Z,4.65
2023-02-03T00:16:13.454Z,4.42
2023-02-03T00:18:41.459Z,5.10
2023-02-03T00:21:09.379Z,4.88
2023-02-03T00:23:37.213Z,5.22
2023-02-03T00:29:02.280Z,5.31
2023-02-03T00:31:30.341Z,5.11
2023-02-03T00:33:58.587Z,5.35
2023-02-03T00:36:26.851Z,5.16
2023-02-03T00:38:54.831Z,5.42
2023-02-03T00:41:25.363Z,5.49
2023-02-03T00:43:54.657Z,5.28
2023-02-03T00:46:22.538Z,5.40
2023-02-03T00:48:52.517Z,5.70
2023-02-03T00:51:21.399Z,5.61
2023-02-03T00:53:49.765Z,5.69
2023-02-03T00:56:17.655Z,6.01
2023-02-03T00:58:45.469Z,6.44
2023-02-03T01:01:14.169Z,6.79
2023-02-03T01:03:42.376Z,7.32
2023-02-03T01:06:14.140Z,7.01
2023-02-03T01:08:49.338Z,7.92
2023-02-03T01:11:27.103Z,8.59
2023-02-03T01:13:57.499Z,8.93
2023-02-03T01:16:28.602Z,9.53
2023-02-03T01:18:58.501Z,9.83
2023-02-03T01:21:27.255Z,9.58
2023-02-03T01:23:57.358Z,10.64
2023-02-03T01:26:25.571Z,9.98
2023-02-03T01:28:55.857Z,10.74
2023-02-03T01:31:27.419Z,9.89
2023-02-03T01:34:01.402Z,10.39
2023-02-03T01:36:32.866Z,10.50
2023-02-03T01:39:05.233Z,10.20
2023-02-03T01:41:36.591Z,10.45
2023-02-03T01:44:37.373Z,10.22
2023-02-03T01:47:26.591Z,10.48
2023-02-03T01:50:02.528Z,9.88
2023-02-03T01:52:32.959Z,10.66
2023-02-03T01:55:31.349Z,10.46
2023-02-03T01:58:05.083Z,10.77
2023-02-03T02:00:33.383Z,11.13
2023-02-03T02:03:04.841Z,11.31
2023-02-03T02:05:35.984Z,11.20
2023-02-03T02:08:04.566Z,11.06
2023-02-03T02:10:33.896Z,9.86
2023-02-03T02:13:04.344Z,10.33
2023-02-03T02:16:08.449Z,10.11
2023-02-03T02:19:46.368Z,9.47
2023-02-03T02:22:26.326Z,8.96
2023-02-03T02:25:22.488Z,8.87
2023-02-03T02:28:12.022Z,7.57
2023-02-03T02:31:18.483Z,6.61
2023-02-03T02:33:50.878Z,6.14
2023-02-03T02:36:47.380Z,5.82
2023-02-03T02:39:28.183Z,5.85
2023-02-03T02:45:00.520Z,3.81
2023-02-03T02:48:21.776Z,3.78
2023-02-03T02:51:16.913Z,3.39
2023-02-03T02:53:50.120Z,3.54
2023-02-03T02:56:20.373Z,3.50
2023-02-03T02:58:55.129Z,3.59
2023-02-03T03:01:24.580Z,4.11
2023-02-03T03:03:52.899Z,4.04
2023-02-03T03:06:35.355Z,4.02
2023-02-03T03:09:21.786Z,3.93
2023-02-03T03:12:07.336Z,4.17
2023-02-03T03:14:41.552Z,3.94
2023-02-03T03:17:17.395Z,3.89
2023-02-03T03:19:52.475Z,3.91
2023-02-03T03:22:29.503Z,3.93
2023-02-03T03:25:12.797Z,4.22
2023-02-03T03:27:50.467Z,4.18
2023-02-03T03:30:25.809Z,4.59
2023-02-03T03:32:55.334Z,4.71
2023-02-03T03:36:08.199Z,4.66
2023-02-03T03:38:39.376Z,4.86
2023-02-03T03:41:25.003Z,4.74
2023-02-03T03:44:00.395Z,4.67
2023-02-03T03:46:35.634Z,4.82
2023-02-03T03:49:08.895Z,5.29
2023-02-03T03:51:48.215Z,5.04
2023-02-03T03:54:20.806Z,5.69
2023-02-03T03:56:57.222Z,5.84
2023-02-03T03:59:30.398Z,5.39
2023-02-03T04:02:04.796Z,5.30
2023-02-03T04:04:36.851Z,4.74
2023-02-03T04:07:05.050Z,5.41
2023-02-03T04:09:37.476Z,4.95
2023-02-03T04:12:06.549Z,5.03
2023-02-03T04:14:38.417Z,4.54
2023-02-03T04:17:07.119Z,4.51
2023-02-03T04:19:35.135Z,5.28
2023-02-03T04:22:03.131Z,10.10
2023-02-03T04:24:30.966Z,4.19
2023-02-03T04:27:05.277Z,4.22
2023-02-03T04:29:34.109Z,4.44
2023-02-03T04:32:02.453Z,4.46
2023-02-03T04:34:30.299Z,4.32
2023-02-03T04:36:59.082Z,4.34
2023-02-03T04:39:26.968Z,4.88
2023-02-03T04:41:54.806Z,4.42
2023-02-03T04:44:23.392Z,4.67
2023-02-03T04:46:51.333Z,4.44
2023-02-03T04:49:19.161Z,4.34
2023-02-03T04:51:51.494Z,4.70
2023-02-03T04:54:19.366Z,4.21
2023-02-03T04:56:47.510Z,4.08
2023-02-03T04:59:16.033Z,4.17
2023-02-03T05:01:43.991Z,4.29
2023-02-03T05:04:15.405Z,4.08
2023-02-03T05:07:09.818Z,3.99
2023-02-03T05:09:40.514Z,4.12
2023-02-03T05:12:08.805Z,4.20
2023-02-03T05:14:36.624Z,3.87
2023-02-03T05:17:05.369Z,3.91
2023-02-03T05:19:34.019Z,4.56
2023-02-03T05:24:53.919Z,4.26
2023-02-03T05:27:21.769Z,4.46
2023-02-03T05:29:50.035Z,4.16
2023-02-03T05:32:19.514Z,4.13
2023-02-03T05:34:47.332Z,4.45
2023-02-03T05:37:15.131Z,4.20
2023-02-03T05:39:43.293Z,4.58
2023-02-03T05:42:11.099Z,4.27
2023-02-03T05:44:38.957Z,5.07
2023-02-03T05:50:02.535Z,5.85
2023-02-03T05:52:57.780Z,5.93
2023-02-03T05:58:45.413Z,6.62
2023-02-03T06:01:13.250Z,6.65
2023-02-03T06:03:45.824Z,6.38
2023-02-03T06:06:18.360Z,6.59
2023-02-03T06:08:47.088Z,6.02
2023-02-03T06:11:15.469Z,6.67
2023-02-03T06:13:43.263Z,6.12
2023-02-03T06:16:12.158Z,5.89
2023-02-03T06:18:41.115Z,5.94
2023-02-03T06:21:33.633Z,4.98
2023-02-03T06:24:01.620Z,4.83
2023-02-03T06:26:29.587Z,4.91
2023-02-03T06:28:57.400Z,4.80
2023-02-03T06:31:51.005Z,4.48
2023-02-03T06:34:18.906Z,4.27
2023-02-03T06:36:48.406Z,4.27
2023-02-03T06:39:17.522Z,4.04
2023-02-03T06:41:45.324Z,4.49
2023-02-03T06:44:13.129Z,4.11
2023-02-03T06:46:41.549Z,3.92
2023-02-03T06:49:09.384Z,4.13
2023-02-03T06:51:37.319Z,6.64
2023-02-03T06:54:05.264Z,4.30
2023-02-03T06:56:34.410Z,3.65
2023-02-03T06:59:03.870Z,3.04
2023-02-03T07:01:31.934Z,2.93
2023-02-03T07:04:00.552Z,2.91
2023-02-03T07:06:30.941Z,2.82
2023-02-03T07:09:01.959Z,2.64
2023-02-03T07:11:31.333Z,2.88
2023-02-03T07:14:00.411Z,2.70
2023-02-03T07:16:28.240Z,2.79
2023-02-03T07:18:56.092Z,2.60
2023-02-03T07:21:24.062Z,2.72
2023-02-03T07:23:52.054Z,2.52
2023-02-03T07:26:22.989Z,2.55
2023-02-03T07:28:56.517Z,2.25
2023-02-03T07:31:24.467Z,2.41
2023-02-03T07:33:52.362Z,2.47
2023-02-03T07:36:20.343Z,2.55
2023-02-03T07:38:48.349Z,2.30
2023-02-03T07:41:18.254Z,2.30
2023-02-03T07:43:46.270Z,2.32
2023-02-03T07:46:14.306Z,2.67
2023-02-03T07:48:44.564Z,2.13
2023-02-03T07:51:12.404Z,2.37
2023-02-03T07:53:40.172Z,2.15
2023-02-03T07:56:59.412Z,5.53
2023-02-03T07:59:27.222Z,3.63
2023-02-03T08:01:56.929Z,2.56
2023-02-03T08:04:26.419Z,2.54
2023-02-03T08:06:54.237Z,2.41
2023-02-03T08:09:22.994Z,2.36
2023-02-03T08:11:51.447Z,2.44
2023-02-03T08:14:19.279Z,2.09
2023-02-03T08:16:48.068Z,2.16
2023-02-03T08:19:16.023Z,2.10
2023-02-03T08:21:43.842Z,2.14
2023-02-03T08:24:12.469Z,2.06
2023-02-03T08:26:40.291Z,2.19
2023-02-03T08:29:08.151Z,2.02
2023-02-03T08:31:37.573Z,2.23
2023-02-03T08:34:05.626Z,2.09
2023-02-03T08:36:37.116Z,2.02
2023-02-03T08:39:05.062Z,1.97
2023-02-03T08:41:33.447Z,2.01
2023-02-03T08:44:02.592Z,2.16
2023-02-03T08:46:31.114Z,2.11
2023-02-03T08:48:59.967Z,1.85
2023-02-03T08:51:28.415Z,1.97
2023-02-03T08:53:56.216Z,2.07
2023-02-03T08:56:26.322Z,2.00
2023-02-03T08:58:57.219Z,1.94
2023-02-03T09:01:25.118Z,2.31
2023-02-03T09:03:54.397Z,1.89
2023-02-03T09:06:26.091Z,2.57
2023-02-03T09:08:54.142Z,2.14
2023-02-03T09:11:21.993Z,2.54
2023-02-03T09:13:50.651Z,2.09
2023-02-03T09:16:21.338Z,2.05
2023-02-03T09:18:49.403Z,1.72
2023-02-03T09:21:32.100Z,1.92
2023-02-03T09:24:04.339Z,1.55
2023-02-03T09:26:32.149Z,1.82
2023-02-03T09:28:59.997Z,2.08
2023-02-03T09:31:27.860Z,1.79
2023-02-03T09:33:56.393Z,1.62
2023-02-03T09:36:24.200Z,1.76
2023-02-03T09:38:52.080Z,1.64
2023-02-03T09:41:34.994Z,1.54
2023-02-03T09:44:20.657Z,1.77
2023-02-03T09:46:55.503Z,1.61
2023-02-03T09:49:27.494Z,2.99
2023-02-03T09:52:19.253Z,1.84
2023-02-03T09:54:57.653Z,1.71
2023-02-03T09:57:28.349Z,1.75
2023-02-03T09:59:59.328Z,1.76
2023-02-03T10:02:49.499Z,1.69
2023-02-03T10:05:26.047Z,3.96
2023-02-03T10:07:58.431Z,3.41
2023-02-03T10:10:39.171Z,1.67
2023-02-03T10:13:29.565Z,1.51
2023-02-03T10:16:30.068Z,1.55
2023-02-03T10:19:04.181Z,1.72
2023-02-03T10:21:37.595Z,1.54
2023-02-03T10:27:21.503Z,1.96
2023-02-03T10:30:21.618Z,1.41
2023-02-03T10:32:56.611Z,1.60
2023-02-03T10:35:35.925Z,1.57
2023-02-03T10:38:10.456Z,1.69
2023-02-03T10:40:39.273Z,1.80
2023-02-03T10:46:30.070Z,1.79
2023-02-03T10:48:58.140Z,1.76
2023-02-03T10:51:32.021Z,1.79
2023-02-03T10:54:00.407Z,1.58
2023-02-03T10:56:33.155Z,1.74
2023-02-03T10:59:01.104Z,1.56
2023-02-03T11:01:51.499Z,1.82
2023-02-03T11:04:44.417Z,1.81
2023-02-03T11:10:43.391Z,1.78
2023-02-03T11:13:23.019Z,1.82
2023-02-03T11:15:54.606Z,1.68
2023-02-03T11:18:34.575Z,1.78
2023-02-03T11:24:29.454Z,2.19
2023-02-03T11:27:06.833Z,1.85
2023-02-03T11:29:38.442Z,1.62
2023-02-03T11:32:16.532Z,1.63
2023-02-03T11:35:18.484Z,2.12
2023-02-03T11:37:52.408Z,5.51
2023-02-03T11:40:21.415Z,1.63
2023-02-03T11:42:49.481Z,1.61
2023-02-03T11:45:28.525Z,1.52
2023-02-03T11:48:01.443Z,1.75
2023-02-03T11:50:39.451Z,1.87
2023-02-03T11:53:27.481Z,1.87
2023-02-03T11:56:36.160Z,1.90
2023-02-03T11:59:07.059Z,1.67
2023-02-03T12:02:46.342Z,1.87
2023-02-03T12:05:35.555Z,1.74
2023-02-03T12:08:08.469Z,9.05
2023-02-03T12:11:05.618Z,2.46
2023-02-03T12:13:55.468Z,1.85
2023-02-03T12:16:55.915Z,1.80
2023-02-03T12:19:46.235Z,1.96
2023-02-03T12:22:56.138Z,1.74
2023-02-03T12:25:49.006Z,1.89
2023-02-03T12:28:37.116Z,1.80
2023-02-03T12:31:12.616Z,2.04
2023-02-03T12:33:50.887Z,2.04
2023-02-03T12:36:27.785Z,1.83
2023-02-03T12:39:16.459Z,1.97
2023-02-03T12:42:03.425Z,2.01
2023-02-03T12:44:40.808Z,1.95
2023-02-03T12:47:29.630Z,1.92
2023-02-03T12:50:07.813Z,2.07
2023-02-03T12:52:44.441Z,3.91
2023-02-03T12:55:41.570Z,2.41
2023-02-03T12:58:22.130Z,2.24
2023-02-03T13:01:08.564Z,2.16
2023-02-03T13:06:46.458Z,1.89
2023-02-03T13:09:48.147Z,1.83
2023-02-03T13:12:41.707Z,1.96
2023-02-03T13:15:19.000Z,1.88
2023-02-03T13:17:53.474Z,1.75
2023-02-03T13:20:27.286Z,1.80
2023-02-03T13:23:22.464Z,1.98
2023-02-03T13:26:11.572Z,1.82
2023-02-03T13:28:57.343Z,2.77
2023-02-03T13:31:50.252Z,3.47
2023-02-03T13:34:25.570Z,1.60
2023-02-03T13:37:53.014Z,1.65
2023-02-03T13:40:49.457Z,1.73
2023-02-03T13:43:38.377Z,3.06
2023-02-03T13:46:28.469Z,2.78
2023-02-03T13:49:01.205Z,2.50
2023-02-03T13:51:37.880Z,1.82
2023-02-03T13:54:17.547Z,1.73
2023-02-03T13:56:56.711Z,1.60
2023-02-03T13:59:44.443Z,1.61
2023-02-03T14:02:21.579Z,1.68
2023-02-03T14:05:01.988Z,1.95
2023-02-03T14:07:42.547Z,2.04
2023-02-03T14:10:13.365Z,1.85
2023-02-03T14:12:50.790Z,2.29
2023-02-03T14:15:32.021Z,2.54
2023-02-03T14:18:02.766Z,2.31
2023-02-03T14:20:52.687Z,1.95
2023-02-03T14:23:28.463Z,2.01
2023-02-03T14:26:00.249Z,1.66
2023-02-03T14:28:54.473Z,1.85
2023-02-03T14:31:25.034Z,1.86
2023-02-03T14:34:13.440Z,1.98
2023-02-03T14:36:45.935Z,2.08
2023-02-03T14:39:24.484Z,2.06
2023-02-03T14:42:31.893Z,2.54
2023-02-03T14:45:12.516Z,2.29
2023-02-03T14:48:14.056Z,2.03
2023-02-03T14:54:20.992Z,2.23
2023-02-03T14:57:21.535Z,2.22
2023-02-03T15:00:10.764Z,1.82
2023-02-03T15:03:07.589Z,2.09
2023-02-03T15:05:42.458Z,1.82
2023-02-03T15:08:33.276Z,3.50
2023-02-03T15:11:33.687Z,1.69
2023-02-03T15:14:20.108Z,1.89
2023-02-03T15:16:57.618Z,1.79
2023-02-03T15:19:30.536Z,1.98
2023-02-03T15:21:59.842Z,1.63
2023-02-03T15:24:36.534Z,1.61
2023-02-03T15:27:05.146Z,1.49
2023-02-03T15:29:36.612Z,1.44
2023-02-03T15:32:11.647Z,1.45
2023-02-03T15:34:49.523Z,1.19
2023-02-03T15:37:29.525Z,1.51
2023-02-03T15:40:06.437Z,1.55
2023-02-03T15:42:57.399Z,1.96
2023-02-03T15:46:04.572Z,1.89
2023-02-03T15:48:49.025Z,1.69
2023-02-03T15:51:21.909Z,1.66
2023-02-03T15:54:40.084Z,1.67
2023-02-03T15:57:21.735Z,1.42
2023-02-03T16:02:50.516Z,1.81
2023-02-03T16:05:29.832Z,1.74
2023-02-03T16:08:48.835Z,1.52
2023-02-03T16:11:27.498Z,1.83
2023-02-03T16:14:00.509Z,1.72
2023-02-03T16:17:04.904Z,1.83
2023-02-03T16:19:39.477Z,1.74
2023-02-03T16:22:32.013Z,1.63
2023-02-03T16:25:30.813Z,2.45
2023-02-03T16:28:35.291Z,1.53
2023-02-03T16:31:34.257Z,1.62
2023-02-03T16:34:33.925Z,1.60
2023-02-03T16:37:21.519Z,1.72
2023-02-03T16:40:09.494Z,1.58
2023-02-03T16:42:59.269Z,1.87
2023-02-03T16:45:46.460Z,1.94
2023-02-03T16:48:34.931Z,1.75
2023-02-03T16:51:07.433Z,1.70
2023-02-03T16:53:36.344Z,1.74
2023-02-03T16:56:04.934Z,1.82
2023-02-03T16:58:33.002Z,1.83
2023-02-03T17:01:06.504Z,1.84
2023-02-03T17:03:36.520Z,1.79
2023-02-03T17:06:12.508Z,1.96
2023-02-03T17:08:41.383Z,1.83
2023-02-03T17:11:16.556Z,1.68
2023-02-03T17:13:44.821Z,1.76
2023-02-03T17:16:23.015Z,1.79
2023-02-03T17:18:53.745Z,1.90
2023-02-03T17:21:29.651Z,1.65
2023-02-03T17:23:58.890Z,1.60
2023-02-03T17:26:26.706Z,1.67
2023-02-03T17:28:54.874Z,2.14
2023-02-03T17:31:22.836Z,1.59
2023-02-03T17:33:51.921Z,1.97
2023-02-03T17:36:21.726Z,1.80
2023-02-03T17:55:23.449Z,2.18
2023-02-03T17:57:51.524Z,2.33
2023-02-03T18:00:19.607Z,2.36
2023-02-03T18:02:53.329Z,2.62
2023-02-03T18:05:21.181Z,2.39
2023-02-03T18:07:49.700Z,3.48
2023-02-03T18:10:18.235Z,2.76
2023-02-03T18:12:46.433Z,2.98
2023-02-03T18:15:14.268Z,2.80
2023-02-03T18:17:42.135Z,2.52
2023-02-03T18:20:10.793Z,2.57
2023-02-03T18:22:38.720Z,2.62
2023-02-03T18:25:07.338Z,2.60
2023-02-03T18:27:35.311Z,2.42
2023-02-03T18:30:04.398Z,2.50
2023-02-03T18:32:33.134Z,2.66
2023-02-03T18:35:01.880Z,2.85
2023-02-03T18:37:30.058Z,2.12
2023-02-03T18:39:58.096Z,2.10
2023-02-03T18:42:26.424Z,2.27
2023-02-03T18:44:54.692Z,1.72
2023-02-03T18:47:23.463Z,1.63
2023-02-03T18:49:51.332Z,1.88
2023-02-03T18:52:20.417Z,1.70
2023-02-03T18:54:49.124Z,1.78
2023-02-03T18:57:17.263Z,2.07
2023-02-03T18:59:45.306Z,1.94
2023-02-03T19:02:13.206Z,1.83
2023-02-03T19:04:41.468Z,1.88
2023-02-03T19:07:09.493Z,4.95
2023-02-03T19:09:38.260Z,2.19
2023-02-03T19:12:06.382Z,1.85
2023-02-03T19:14:36.255Z,1.85
2023-02-03T19:17:05.079Z,1.86
2023-02-03T19:19:32.996Z,1.84
2023-02-03T19:22:01.010Z,1.81
2023-02-03T19:24:28.888Z,2.06
2023-02-03T19:26:56.775Z,1.64
2023-02-03T19:29:24.742Z,2.11
2023-02-03T19:31:53.803Z,1.89
2023-02-03T19:34:21.899Z,2.03
2023-02-03T19:36:49.931Z,1.92
2023-02-03T19:39:18.847Z,1.76
2023-02-03T19:41:47.501Z,1.58
2023-02-03T19:44:15.654Z,1.44
2023-02-03T19:46:45.784Z,1.48
2023-02-03T19:49:15.191Z,1.43
2023-02-03T19:51:44.592Z,1.54
2023-02-03T19:54:16.723Z,1.46
2023-02-03T19:56:44.840Z,1.41
2023-02-03T19:59:14.479Z,1.37
2023-02-03T20:01:42.495Z,1.47
2023-02-03T20:04:10.815Z,4.45
2023-02-03T20:07:04.061Z,1.17
2023-02-03T20:09:32.549Z,1.16
2023-02-03T20:12:00.939Z,1.19
2023-02-03T20:14:28.783Z,1.16
2023-02-03T20:17:25.635Z,1.45
2023-02-03T20:19:55.167Z,1.59
2023-02-03T20:22:23.240Z,1.35
2023-02-03T20:25:19.794Z,1.55
2023-02-03T20:27:47.948Z,1.33
2023-02-03T20:30:16.113Z,1.18
2023-02-03T20:32:44.481Z,1.12
2023-02-03T20:35:12.711Z,1.01
2023-02-03T20:37:42.496Z,0.98
2023-02-03T20:40:16.831Z,0.84
2023-02-03T20:42:46.529Z,0.90
2023-02-03T20:45:17.245Z,0.97
2023-02-03T20:47:45.695Z,0.99
2023-02-03T20:50:17.238Z,4.42
2023-02-03T20:52:46.674Z,7.54
2023-02-03T20:55:40.218Z,1.37
2023-02-03T20:58:29.490Z,0.91
2023-02-03T21:00:59.088Z,1.04
2023-02-03T21:03:46.795Z,1.06
2023-02-03T21:06:19.541Z,1.81
2023-02-03T21:08:49.279Z,1.91
2023-02-03T21:11:20.506Z,1.99
2023-02-03T21:13:49.770Z,1.73
2023-02-03T21:16:43.592Z,1.52
2023-02-03T21:19:23.954Z,1.34
2023-02-03T21:21:54.547Z,1.46
2023-02-03T21:24:27.078Z,1.39
2023-02-03T21:26:56.480Z,1.21
2023-02-03T21:29:29.214Z,1.22
2023-02-03T21:31:57.941Z,1.00
2023-02-03T21:34:37.545Z,1.01
2023-02-03T21:37:21.216Z,0.87
2023-02-03T21:39:50.140Z,1.02
2023-02-03T21:42:42.961Z,1.15
2023-02-03T21:45:19.857Z,1.44
2023-02-03T21:50:45.508Z,0.98
2023-02-03T21:53:14.058Z,0.92
2023-02-03T21:58:39.491Z,1.13
2023-02-03T22:01:07.408Z,1.19
2023-02-03T22:03:41.606Z,1.33
2023-02-03T22:06:09.325Z,1.35
2023-02-03T22:09:02.574Z,1.34
2023-02-03T22:11:36.025Z,1.27
2023-02-03T22:14:04.056Z,1.20
2023-02-03T22:16:32.273Z,1.16
2023-02-03T22:19:00.233Z,1.16
2023-02-03T22:21:28.542Z,1.20
2023-02-03T22:23:57.595Z,1.11
2023-02-03T22:26:26.348Z,1.36
2023-02-03T22:28:54.492Z,1.38
2023-02-03T22:31:22.554Z,1.45
2023-02-03T22:33:51.663Z,1.42
2023-02-03T22:36:19.584Z,1.51
2023-02-03T22:38:47.416Z,1.87
2023-02-03T22:41:16.233Z,1.74
2023-02-03T22:43:45.513Z,1.82
2023-02-03T22:46:13.412Z,2.22
2023-02-03T22:48:42.280Z,2.11
2023-02-03T22:51:10.133Z,2.92
2023-02-03T22:53:39.491Z,2.77
2023-02-03T22:56:07.563Z,2.85
2023-02-03T22:58:35.508Z,2.74
2023-02-03T23:01:03.607Z,2.85
2023-02-03T23:03:32.684Z,3.15
2023-02-03T23:06:26.059Z,2.69
2023-02-03T23:08:55.450Z,3.38
2023-02-03T23:11:24.225Z,3.42
2023-02-03T23:16:45.281Z,4.02
2023-02-03T23:19:13.104Z,4.27
2023-02-03T23:24:33.467Z,4.69
2023-02-03T23:27:01.499Z,4.17
2023-02-03T23:32:22.794Z,4.17
2023-02-03T23:35:09.617Z,4.28
2023-02-03T23:37:38.608Z,4.19
2023-02-03T23:40:07.346Z,3.99
2023-02-03T23:42:36.217Z,3.85
2023-02-03T23:48:05.493Z,3.11
2023-02-03T23:50:34.157Z,3.00
2023-02-03T23:53:02.504Z,3.80
2023-02-03T23:55:31.336Z,3.32
2023-02-03T23:58:01.552Z,3.26
